sensor_id;sensor_type;location;lat;lon;timestamp;pressure;altitude;pressure_sealevel;temperature;humidity
17311;BME280;8773;43.300;0.394;2023-11-21T00:01:40;100215.13;;;11.50;73.58
17311;BME280;8773;43.300;0.394;2023-11-21T00:04:08;100209.09;;;11.48;74.09
17311;BME280;8773;43.300;0.394;2023-11-21T00:06:35;100207.25;;;11.49;72.92
17311;BME280;8773;43.300;0.394;2023-11-21T00:09:03;100201.53;;;11.61;73.78
17311;BME280;8773;43.300;0.394;2023-11-21T00:11:30;100204.88;;;11.63;73.57
17311;BME280;8773;43.300;0.394;2023-11-21T00:13:57;100204.66;;;11.57;73.78
17311;BME280;8773;43.300;0.394;2023-11-21T00:16:26;100201.69;;;11.60;73.13
17311;BME280;8773;43.300;0.394;2023-11-21T00:18:53;100199.25;;;11.49;73.77
17311;BME280;8773;43.300;0.394;2023-11-21T00:21:20;100195.63;;;11.40;74.09
17311;BME280;8773;43.300;0.394;2023-11-21T00:23:48;100186.13;;;11.28;74.24
17311;BME280;8773;43.300;0.394;2023-11-21T00:26:15;100184.38;;;11.36;74.46
17311;BME280;8773;43.300;0.394;2023-11-21T00:28:42;100180.94;;;11.26;74.62
17311;BME280;8773;43.300;0.394;2023-11-21T00:31:10;100175.63;;;11.44;73.66
17311;BME280;8773;43.300;0.394;2023-11-21T00:33:39;100174.91;;;11.15;74.07
17311;BME280;8773;43.300;0.394;2023-11-21T00:36:07;100173.84;;;11.07;74.69
17311;BME280;8773;43.300;0.394;2023-11-21T00:38:35;100166.28;;;11.21;74.09
17311;BME280;8773;43.300;0.394;2023-11-21T00:41:02;100161.91;;;11.02;75.84
17311;BME280;8773;43.300;0.394;2023-11-21T00:43:30;100153.59;;;11.05;75.35
17311;BME280;8773;43.300;0.394;2023-11-21T00:45:57;100159.41;;;11.18;74.51
17311;BME280;8773;43.300;0.394;2023-11-21T00:48:24;100158.31;;;11.11;75.30
17311;BME280;8773;43.300;0.394;2023-11-21T00:50:53;100155.22;;;11.16;75.32
17311;BME280;8773;43.300;0.394;2023-11-21T00:53:20;100149.53;;;11.28;74.44
17311;BME280;8773;43.300;0.394;2023-11-21T00:55:47;100145.53;;;10.87;75.22
17311;BME280;8773;43.300;0.394;2023-11-21T00:58:15;100147.72;;;11.01;75.28
17311;BME280;8773;43.300;0.394;2023-11-21T01:00:42;100136.97;;;10.84;76.37
17311;BME280;8773;43.300;0.394;2023-11-21T01:03:09;100144.13;;;10.83;76.06
17311;BME280;8773;43.300;0.394;2023-11-21T01:05:37;100135.13;;;10.84;76.41
17311;BME280;8773;43.300;0.394;2023-11-21T01:08:06;100137.72;;;11.03;76.38
17311;BME280;8773;43.300;0.394;2023-11-21T01:10:33;100135.03;;;11.03;75.48
17311;BME280;8773;43.300;0.394;2023-11-21T01:13:00;100141.44;;;11.10;74.77
17311;BME280;8773;43.300;0.394;2023-11-21T01:15:28;100134.59;;;11.35;74.42
17311;BME280;8773;43.300;0.394;2023-11-21T01:17:55;100143.06;;;11.31;74.48
17311;BME280;8773;43.300;0.394;2023-11-21T01:20:23;100125.72;;;10.80;76.65
17311;BME280;8773;43.300;0.394;2023-11-21T01:22:51;100138.53;;;10.76;75.74
17311;BME280;8773;43.300;0.394;2023-11-21T01:25:19;100128.81;;;10.85;75.50
17311;BME280;8773;43.300;0.394;2023-11-21T01:27:47;100131.56;;;10.66;76.68
17311;BME280;8773;43.300;0.394;2023-11-21T01:30:14;100142.03;;;10.77;77.12
17311;BME280;8773;43.300;0.394;2023-11-21T01:32:42;100137.06;;;10.92;77.22
17311;BME280;8773;43.300;0.394;2023-11-21T01:35:09;100126.31;;;10.74;77.17
17311;BME280;8773;43.300;0.394;2023-11-21T01:37:37;100138.44;;;10.96;77.33
17311;BME280;8773;43.300;0.394;2023-11-21T01:40:06;100127.72;;;10.78;76.83
17311;BME280;8773;43.300;0.394;2023-11-21T01:42:35;100114.34;;;10.78;76.64
17311;BME280;8773;43.300;0.394;2023-11-21T01:45:02;100121.19;;;10.90;76.65
17311;BME280;8773;43.300;0.394;2023-11-21T01:47:30;100121.63;;;10.86;75.79
17311;BME280;8773;43.300;0.394;2023-11-21T01:49:58;100127.66;;;10.60;77.53
17311;BME280;8773;43.300;0.394;2023-11-21T01:52:25;100123.16;;;10.61;76.76
17311;BME280;8773;43.300;0.394;2023-11-21T01:54:53;100116.44;;;10.57;77.47
17311;BME280;8773;43.300;0.394;2023-11-21T01:57:21;100124.88;;;10.52;77.26
17311;BME280;8773;43.300;0.394;2023-11-21T01:59:50;100125.53;;;10.64;76.47
17311;BME280;8773;43.300;0.394;2023-11-21T02:02:21;100111.88;;;10.67;76.74
17311;BME280;8773;43.300;0.394;2023-11-21T02:04:48;100113.47;;;10.60;76.00
17311;BME280;8773;43.300;0.394;2023-11-21T02:07:16;100113.06;;;10.55;75.97
17311;BME280;8773;43.300;0.394;2023-11-21T02:09:43;100099.31;;;10.50;75.55
17311;BME280;8773;43.300;0.394;2023-11-21T02:12:10;100113.25;;;10.34;76.17
17311;BME280;8773;43.300;0.394;2023-11-21T02:14:38;100113.78;;;10.47;76.24
17311;BME280;8773;43.300;0.394;2023-11-21T02:17:06;100109.66;;;10.62;75.60
17311;BME280;8773;43.300;0.394;2023-11-21T02:19:34;100104.56;;;10.69;76.15
17311;BME280;8773;43.300;0.394;2023-11-21T02:22:02;100118.84;;;10.78;76.03
17311;BME280;8773;43.300;0.394;2023-11-21T02:24:31;100117.59;;;10.72;75.63
17311;BME280;8773;43.300;0.394;2023-11-21T02:26:59;100115.75;;;10.82;76.03
17311;BME280;8773;43.300;0.394;2023-11-21T02:29:26;100106.34;;;10.78;76.57
17311;BME280;8773;43.300;0.394;2023-11-21T02:31:54;100098.03;;;10.81;77.29
17311;BME280;8773;43.300;0.394;2023-11-21T02:34:22;100094.66;;;10.79;76.69
17311;BME280;8773;43.300;0.394;2023-11-21T02:36:50;100089.81;;;10.92;76.44
17311;BME280;8773;43.300;0.394;2023-11-21T02:39:18;100090.31;;;11.05;75.60
17311;BME280;8773;43.300;0.394;2023-11-21T02:41:46;100083.75;;;11.18;75.82
17311;BME280;8773;43.300;0.394;2023-11-21T02:44:14;100084.25;;;11.31;74.94
17311;BME280;8773;43.300;0.394;2023-11-21T02:46:41;100075.97;;;11.06;75.32
17311;BME280;8773;43.300;0.394;2023-11-21T02:49:08;100068.44;;;10.92;75.56
17311;BME280;8773;43.300;0.394;2023-11-21T02:51:35;100069.53;;;10.99;76.19
17311;BME280;8773;43.300;0.394;2023-11-21T02:54:05;100078.16;;;10.93;76.89
17311;BME280;8773;43.300;0.394;2023-11-21T02:56:32;100069.63;;;10.80;76.46
17311;BME280;8773;43.300;0.394;2023-11-21T02:59:01;100068.84;;;10.70;77.02
17311;BME280;8773;43.300;0.394;2023-11-21T03:01:28;100062.25;;;10.92;76.34
17311;BME280;8773;43.300;0.394;2023-11-21T03:03:56;100065.09;;;10.90;75.73
17311;BME280;8773;43.300;0.394;2023-11-21T03:06:23;100064.78;;;10.93;75.50
17311;BME280;8773;43.300;0.394;2023-11-21T03:08:50;100067.25;;;11.04;74.97
17311;BME280;8773;43.300;0.394;2023-11-21T03:11:18;100060.34;;;10.84;75.67
17311;BME280;8773;43.300;0.394;2023-11-21T03:13:45;100059.16;;;10.96;75.04
17311;BME280;8773;43.300;0.394;2023-11-21T03:16:15;100056.78;;;11.11;75.24
17311;BME280;8773;43.300;0.394;2023-11-21T03:18:42;100057.63;;;11.12;75.28
17311;BME280;8773;43.300;0.394;2023-11-21T03:21:09;100054.28;;;11.09;75.32
17311;BME280;8773;43.300;0.394;2023-11-21T03:23:37;100055.28;;;11.08;75.33
17311;BME280;8773;43.300;0.394;2023-11-21T03:26:04;100056.56;;;11.04;75.73
17311;BME280;8773;43.300;0.394;2023-11-21T03:28:32;100052.75;;;11.25;75.18
17311;BME280;8773;43.300;0.394;2023-11-21T03:30:59;100039.28;;;11.17;74.76
17311;BME280;8773;43.300;0.394;2023-11-21T03:33:27;100026.59;;;11.28;74.96
17311;BME280;8773;43.300;0.394;2023-11-21T03:35:55;100020.59;;;10.99;75.26
17311;BME280;8773;43.300;0.394;2023-11-21T03:38:23;100024.25;;;10.98;76.06
17311;BME280;8773;43.300;0.394;2023-11-21T03:40:50;100015.66;;;11.04;75.20
17311;BME280;8773;43.300;0.394;2023-11-21T03:43:17;100011.81;;;10.89;75.46
17311;BME280;8773;43.300;0.394;2023-11-21T03:45:45;100013.69;;;10.79;76.38
17311;BME280;8773;43.300;0.394;2023-11-21T03:48:12;100008.50;;;10.77;76.54
17311;BME280;8773;43.300;0.394;2023-11-21T03:50:41;100012.19;;;10.49;78.27
17311;BME280;8773;43.300;0.394;2023-11-21T03:53:08;100016.81;;;10.56;78.50
17311;BME280;8773;43.300;0.394;2023-11-21T03:55:36;100008.78;;;10.56;78.25
17311;BME280;8773;43.300;0.394;2023-11-21T03:58:03;99998.66;;;10.78;77.75
17311;BME280;8773;43.300;0.394;2023-11-21T04:00:31;100003.66;;;10.90;76.90
17311;BME280;8773;43.300;0.394;2023-11-21T04:02:58;99996.53;;;10.81;77.56
17311;BME280;8773;43.300;0.394;2023-11-21T04:05:25;100001.28;;;11.05;76.13
17311;BME280;8773;43.300;0.394;2023-11-21T04:07:54;100004.69;;;10.80;77.60
17311;BME280;8773;43.300;0.394;2023-11-21T04:10:22;99993.19;;;10.97;77.12
17311;BME280;8773;43.300;0.394;2023-11-21T04:12:49;99993.59;;;11.02;77.07
17311;BME280;8773;43.300;0.394;2023-11-21T04:15:16;99991.28;;;11.07;77.49
17311;BME280;8773;43.300;0.394;2023-11-21T04:17:43;99999.66;;;10.76;77.09
17311;BME280;8773;43.300;0.394;2023-11-21T04:20:11;100002.66;;;10.91;77.49
17311;BME280;8773;43.300;0.394;2023-11-21T04:22:39;99995.16;;;10.77;78.60
17311;BME280;8773;43.300;0.394;2023-11-21T04:25:09;99993.38;;;10.68;78.40
17311;BME280;8773;43.300;0.394;2023-11-21T04:27:36;99978.84;;;10.98;76.84
17311;BME280;8773;43.300;0.394;2023-11-21T04:30:05;99980.81;;;11.14;77.03
17311;BME280;8773;43.300;0.394;2023-11-21T04:32:33;99979.34;;;11.19;76.72
17311;BME280;8773;43.300;0.394;2023-11-21T04:35:00;99973.44;;;11.07;76.53
17311;BME280;8773;43.300;0.394;2023-11-21T04:37:27;99981.13;;;11.10;77.53
17311;BME280;8773;43.300;0.394;2023-11-21T04:39:55;99972.63;;;11.15;76.71
17311;BME280;8773;43.300;0.394;2023-11-21T04:42:23;99974.72;;;11.03;78.17
17311;BME280;8773;43.300;0.394;2023-11-21T04:44:51;99978.75;;;11.25;77.13
17311;BME280;8773;43.300;0.394;2023-11-21T04:47:18;99985.66;;;11.28;77.36
17311;BME280;8773;43.300;0.394;2023-11-21T04:49:46;99981.19;;;11.19;77.16
17311;BME280;8773;43.300;0.394;2023-11-21T04:52:13;99988.75;;;11.23;77.60
17311;BME280;8773;43.300;0.394;2023-11-21T04:54:41;99985.63;;;10.92;78.44
17311;BME280;8773;43.300;0.394;2023-11-21T04:57:08;99979.91;;;10.87;78.59
17311;BME280;8773;43.300;0.394;2023-11-21T04:59:37;99976.78;;;10.92;79.22
17311;BME280;8773;43.300;0.394;2023-11-21T05:02:04;99973.19;;;10.83;79.33
17311;BME280;8773;43.300;0.394;2023-11-21T05:04:31;99976.38;;;10.69;79.01
17311;BME280;8773;43.300;0.394;2023-11-21T05:06:59;99989.88;;;10.67;80.25
17311;BME280;8773;43.300;0.394;2023-11-21T05:09:26;99982.63;;;10.78;79.22
17311;BME280;8773;43.300;0.394;2023-11-21T05:11:54;99976.19;;;10.98;79.38
17311;BME280;8773;43.300;0.394;2023-11-21T05:14:21;99979.78;;;11.06;78.13
17311;BME280;8773;43.300;0.394;2023-11-21T05:16:50;99978.88;;;10.70;79.35
17311;BME280;8773;43.300;0.394;2023-11-21T05:19:17;99984.78;;;10.74;79.90
17311;BME280;8773;43.300;0.394;2023-11-21T05:21:45;99979.72;;;10.53;80.06
17311;BME280;8773;43.300;0.394;2023-11-21T05:24:12;99980.88;;;10.68;80.71
17311;BME280;8773;43.300;0.394;2023-11-21T05:26:39;99972.97;;;10.94;79.13
17311;BME280;8773;43.300;0.394;2023-11-21T05:29:06;99976.19;;;10.98;79.07
17311;BME280;8773;43.300;0.394;2023-11-21T05:31:34;99983.03;;;11.00;79.25
17311;BME280;8773;43.300;0.394;2023-11-21T05:34:03;99976.47;;;11.13;79.32
17311;BME280;8773;43.300;0.394;2023-11-21T05:36:30;99971.50;;;11.18;79.19
17311;BME280;8773;43.300;0.394;2023-11-21T05:38:58;99978.38;;;11.02;79.54
17311;BME280;8773;43.300;0.394;2023-11-21T05:41:25;99983.88;;;10.83;79.94
17311;BME280;8773;43.300;0.394;2023-11-21T05:43:52;99984.94;;;10.90;80.46
17311;BME280;8773;43.300;0.394;2023-11-21T05:46:20;99988.13;;;10.76;81.22
17311;BME280;8773;43.300;0.394;2023-11-21T05:48:47;99995.22;;;10.67;81.96
17311;BME280;8773;43.300;0.394;2023-11-21T05:51:16;99989.34;;;10.64;81.69
17311;BME280;8773;43.300;0.394;2023-11-21T05:53:43;99984.97;;;11.08;80.83
17311;BME280;8773;43.300;0.394;2023-11-21T05:56:11;99999.53;;;10.96;80.45
17311;BME280;8773;43.300;0.394;2023-11-21T05:58:38;99990.47;;;11.06;81.43
17311;BME280;8773;43.300;0.394;2023-11-21T06:01:06;99995.63;;;10.90;81.06
17311;BME280;8773;43.300;0.394;2023-11-21T06:03:33;99991.66;;;10.94;81.57
17311;BME280;8773;43.300;0.394;2023-11-21T06:06:01;99996.09;;;11.03;81.78
17311;BME280;8773;43.300;0.394;2023-11-21T06:08:29;100001.03;;;11.16;81.50
17311;BME280;8773;43.300;0.394;2023-11-21T06:10:57;100001.28;;;11.23;81.48
17311;BME280;8773;43.300;0.394;2023-11-21T06:13:24;100001.41;;;11.21;81.57
17311;BME280;8773;43.300;0.394;2023-11-21T06:15:52;99991.28;;;11.43;80.42
17311;BME280;8773;43.300;0.394;2023-11-21T06:18:19;99994.81;;;11.43;80.36
17311;BME280;8773;43.300;0.394;2023-11-21T06:20:46;99993.06;;;11.60;79.77
17311;BME280;8773;43.300;0.394;2023-11-21T06:23:14;99995.91;;;11.58;79.96
17311;BME280;8773;43.300;0.394;2023-11-21T06:25:42;100003.25;;;11.21;81.42
17311;BME280;8773;43.300;0.394;2023-11-21T06:28:10;100001.44;;;11.39;81.20
17311;BME280;8773;43.300;0.394;2023-11-21T06:30:37;99999.44;;;11.23;81.90
17311;BME280;8773;43.300;0.394;2023-11-21T06:33:05;99992.34;;;11.14;82.11
17311;BME280;8773;43.300;0.394;2023-11-21T06:35:32;100004.06;;;11.31;81.20
17311;BME280;8773;43.300;0.394;2023-11-21T06:37:59;100009.91;;;11.17;81.67
17311;BME280;8773;43.300;0.394;2023-11-21T06:40:26;100006.63;;;11.23;82.57
17311;BME280;8773;43.300;0.394;2023-11-21T06:42:55;100006.50;;;11.42;81.46
17311;BME280;8773;43.300;0.394;2023-11-21T06:45:22;100017.94;;;11.34;81.63
17311;BME280;8773;43.300;0.394;2023-11-21T06:47:50;100015.28;;;11.34;81.64
17311;BME280;8773;43.300;0.394;2023-11-21T06:50:17;100016.72;;;11.29;81.94
17311;BME280;8773;43.300;0.394;2023-11-21T06:52:45;100019.16;;;11.40;81.41
17311;BME280;8773;43.300;0.394;2023-11-21T06:55:13;100015.94;;;11.54;81.38
17311;BME280;8773;43.300;0.394;2023-11-21T06:57:40;100021.91;;;11.48;81.41
17311;BME280;8773;43.300;0.394;2023-11-21T07:00:10;100020.66;;;11.25;82.34
17311;BME280;8773;43.300;0.394;2023-11-21T07:02:37;100030.03;;;11.38;82.00
17311;BME280;8773;43.300;0.394;2023-11-21T07:05:05;100024.91;;;11.27;82.89
17311;BME280;8773;43.300;0.394;2023-11-21T07:07:32;100022.06;;;11.29;82.69
17311;BME280;8773;43.300;0.394;2023-11-21T07:10:00;100021.53;;;11.43;81.73
17311;BME280;8773;43.300;0.394;2023-11-21T07:12:27;100012.38;;;11.71;80.92
17311;BME280;8773;43.300;0.394;2023-11-21T07:14:54;100022.09;;;11.72;81.02
17311;BME280;8773;43.300;0.394;2023-11-21T07:17:23;100023.00;;;11.81;80.86
17311;BME280;8773;43.300;0.394;2023-11-21T07:19:50;100032.75;;;11.90;80.36
17311;BME280;8773;43.300;0.394;2023-11-21T07:22:18;100025.88;;;11.88;80.67
17311;BME280;8773;43.300;0.394;2023-11-21T07:24:45;100032.09;;;11.96;80.08
17311;BME280;8773;43.300;0.394;2023-11-21T07:27:12;100035.59;;;11.89;80.48
17311;BME280;8773;43.300;0.394;2023-11-21T07:29:40;100038.63;;;11.94;80.85
17311;BME280;8773;43.300;0.394;2023-11-21T07:32:07;100045.00;;;12.01;80.45
17311;BME280;8773;43.300;0.394;2023-11-21T07:34:36;100039.66;;;12.01;80.46
17311;BME280;8773;43.300;0.394;2023-11-21T07:37:03;100046.50;;;12.21;79.93
17311;BME280;8773;43.300;0.394;2023-11-21T07:39:30;100046.81;;;12.18;79.71
17311;BME280;8773;43.300;0.394;2023-11-21T07:41:58;100048.06;;;12.32;79.54
17311;BME280;8773;43.300;0.394;2023-11-21T07:44:25;100047.75;;;12.35;79.75
17311;BME280;8773;43.300;0.394;2023-11-21T07:46:52;100046.06;;;12.34;79.72
17311;BME280;8773;43.300;0.394;2023-11-21T07:49:20;100044.66;;;12.56;79.12
17311;BME280;8773;43.300;0.394;2023-11-21T07:51:49;100055.38;;;12.56;78.93
17311;BME280;8773;43.300;0.394;2023-11-21T07:54:16;100055.06;;;12.59;78.69
17311;BME280;8773;43.300;0.394;2023-11-21T07:56:44;100059.06;;;12.55;79.06
17311;BME280;8773;43.300;0.394;2023-11-21T07:59:11;100059.97;;;12.46;78.94
17311;BME280;8773;43.300;0.394;2023-11-21T08:01:38;100054.47;;;12.47;79.09
17311;BME280;8773;43.300;0.394;2023-11-21T08:04:06;100068.47;;;12.59;78.67
17311;BME280;8773;43.300;0.394;2023-11-21T08:06:33;100064.78;;;12.60;78.92
17311;BME280;8773;43.300;0.394;2023-11-21T08:09:02;100069.69;;;12.72;78.57
17311;BME280;8773;43.300;0.394;2023-11-21T08:11:30;100069.66;;;12.64;78.45
17311;BME280;8773;43.300;0.394;2023-11-21T08:13:57;100057.44;;;12.62;78.60
17311;BME280;8773;43.300;0.394;2023-11-21T08:16:24;100074.91;;;12.74;78.04
17311;BME280;8773;43.300;0.394;2023-11-21T08:18:52;100068.19;;;12.70;78.24
17311;BME280;8773;43.300;0.394;2023-11-21T08:21:19;100075.53;;;12.68;78.20
17311;BME280;8773;43.300;0.394;2023-11-21T08:23:46;100075.94;;;12.81;77.63
17311;BME280;8773;43.300;0.394;2023-11-21T08:26:17;100078.09;;;12.86;77.71
17311;BME280;8773;43.300;0.394;2023-11-21T08:28:44;100087.59;;;12.72;78.40
17311;BME280;8773;43.300;0.394;2023-11-21T08:31:11;100085.44;;;12.76;78.73
17311;BME280;8773;43.300;0.394;2023-11-21T08:33:40;100087.44;;;12.73;78.69
17311;BME280;8773;43.300;0.394;2023-11-21T08:36:08;100085.50;;;12.92;78.25
17311;BME280;8773;43.300;0.394;2023-11-21T08:38:35;100079.78;;;12.87;78.09
17311;BME280;8773;43.300;0.394;2023-11-21T08:41:04;100085.50;;;12.92;77.80
17311;BME280;8773;43.300;0.394;2023-11-21T08:43:33;100085.81;;;12.89;78.07
17311;BME280;8773;43.300;0.394;2023-11-21T08:46:01;100082.59;;;12.77;78.38
17311;BME280;8773;43.300;0.394;2023-11-21T08:48:28;100084.13;;;12.80;78.34
17311;BME280;8773;43.300;0.394;2023-11-21T08:50:56;100096.81;;;12.69;78.65
17311;BME280;8773;43.300;0.394;2023-11-21T08:53:23;100094.09;;;12.61;79.02
17311;BME280;8773;43.300;0.394;2023-11-21T08:55:50;100091.97;;;12.73;78.42
17311;BME280;8773;43.300;0.394;2023-11-21T08:58:18;100090.88;;;12.58;78.78
17311;BME280;8773;43.300;0.394;2023-11-21T09:00:47;100090.22;;;12.56;78.88
17311;BME280;8773;43.300;0.394;2023-11-21T09:03:14;100093.59;;;12.66;78.60
17311;BME280;8773;43.300;0.394;2023-11-21T09:05:42;100094.75;;;12.63;78.88
17311;BME280;8773;43.300;0.394;2023-11-21T09:08:09;100097.13;;;12.40;79.80
17311;BME280;8773;43.300;0.394;2023-11-21T09:10:36;100097.78;;;12.42;79.63
17311;BME280;8773;43.300;0.394;2023-11-21T09:13:04;100099.16;;;12.47;80.15
17311;BME280;8773;43.300;0.394;2023-11-21T09:15:31;100099.69;;;12.76;79.61
17311;BME280;8773;43.300;0.394;2023-11-21T09:18:00;100092.22;;;12.96;78.67
17311;BME280;8773;43.300;0.394;2023-11-21T09:20:27;100099.53;;;12.86;78.57
17311;BME280;8773;43.300;0.394;2023-11-21T09:22:54;100096.31;;;13.16;77.71
17311;BME280;8773;43.300;0.394;2023-11-21T09:25:22;100084.75;;;13.40;76.93
17311;BME280;8773;43.300;0.394;2023-11-21T09:27:49;100085.97;;;13.62;76.18
17311;BME280;8773;43.300;0.394;2023-11-21T09:30:16;100093.69;;;13.81;75.53
17311;BME280;8773;43.300;0.394;2023-11-21T09:32:44;100090.16;;;13.48;75.67
17311;BME280;8773;43.300;0.394;2023-11-21T09:35:12;100093.34;;;13.60;75.84
17311;BME280;8773;43.300;0.394;2023-11-21T09:37:40;100086.81;;;13.62;75.93
17311;BME280;8773;43.300;0.394;2023-11-21T09:40:10;100104.94;;;13.93;75.91
17311;BME280;8773;43.300;0.394;2023-11-21T09:42:39;100097.56;;;13.79;75.50
17311;BME280;8773;43.300;0.394;2023-11-21T09:45:13;100104.59;;;13.80;75.34
17311;BME280;8773;43.300;0.394;2023-11-21T09:47:42;100108.59;;;13.59;75.82
17311;BME280;8773;43.300;0.394;2023-11-21T09:50:11;100107.47;;;13.78;75.43
17311;BME280;8773;43.300;0.394;2023-11-21T09:52:44;100115.34;;;13.88;76.07
17311;BME280;8773;43.300;0.394;2023-11-21T09:55:18;100111.31;;;13.84;75.93
17311;BME280;8773;43.300;0.394;2023-11-21T09:57:45;100114.84;;;13.92;74.53
17311;BME280;8773;43.300;0.394;2023-11-21T10:00:14;100121.41;;;14.06;75.54
17311;BME280;8773;43.300;0.394;2023-11-21T10:02:41;100118.38;;;14.01;75.01
17311;BME280;8773;43.300;0.394;2023-11-21T10:05:09;100120.34;;;14.15;74.70
17311;BME280;8773;43.300;0.394;2023-11-21T10:07:36;100129.78;;;14.11;74.70
17311;BME280;8773;43.300;0.394;2023-11-21T10:10:07;100125.59;;;14.00;75.05
17311;BME280;8773;43.300;0.394;2023-11-21T10:12:35;100133.63;;;14.17;74.13
17311;BME280;8773;43.300;0.394;2023-11-21T10:15:03;100134.16;;;14.04;75.09
17311;BME280;8773;43.300;0.394;2023-11-21T10:17:36;100129.91;;;14.34;74.05
17311;BME280;8773;43.300;0.394;2023-11-21T10:20:07;100131.59;;;14.19;73.19
17311;BME280;8773;43.300;0.394;2023-11-21T10:22:35;100132.59;;;14.34;73.95
17311;BME280;8773;43.300;0.394;2023-11-21T10:25:05;100139.47;;;14.20;73.76
17311;BME280;8773;43.300;0.394;2023-11-21T10:27:32;100129.94;;;13.77;76.10
17311;BME280;8773;43.300;0.394;2023-11-21T10:30:00;100122.56;;;13.87;75.58
17311;BME280;8773;43.300;0.394;2023-11-21T10:32:29;100125.41;;;13.86;76.37
17311;BME280;8773;43.300;0.394;2023-11-21T10:34:57;100126.75;;;13.98;75.75
17311;BME280;8773;43.300;0.394;2023-11-21T10:37:25;100120.38;;;13.99;75.38
17311;BME280;8773;43.300;0.394;2023-11-21T10:39:57;100112.63;;;14.28;74.91
17311;BME280;8773;43.300;0.394;2023-11-21T10:42:25;100111.63;;;14.13;74.20
17311;BME280;8773;43.300;0.394;2023-11-21T10:44:55;100107.13;;;13.97;75.66
17311;BME280;8773;43.300;0.394;2023-11-21T10:47:22;100101.88;;;14.20;74.84
17311;BME280;8773;43.300;0.394;2023-11-21T10:49:50;100098.19;;;14.29;75.02
17311;BME280;8773;43.300;0.394;2023-11-21T10:52:19;100098.91;;;14.70;73.72
17311;BME280;8773;43.300;0.394;2023-11-21T10:54:46;100098.41;;;14.67;73.62
17311;BME280;8773;43.300;0.394;2023-11-21T10:57:17;100097.16;;;14.47;72.97
17311;BME280;8773;43.300;0.394;2023-11-21T10:59:47;100092.19;;;14.75;72.83
17311;BME280;8773;43.300;0.394;2023-11-21T11:02:21;100101.81;;;15.00;72.10
17311;BME280;8773;43.300;0.394;2023-11-21T11:04:51;100090.25;;;14.99;71.71
17311;BME280;8773;43.300;0.394;2023-11-21T11:07:21;100095.44;;;15.01;71.72
17311;BME280;8773;43.300;0.394;2023-11-21T11:09:48;100100.16;;;14.52;72.80
17311;BME280;8773;43.300;0.394;2023-11-21T11:12:16;100105.28;;;14.06;73.47
17311;BME280;8773;43.300;0.394;2023-11-21T11:14:44;100105.63;;;13.87;74.72
17311;BME280;8773;43.300;0.394;2023-11-21T11:17:13;100098.06;;;13.74;74.56
17311;BME280;8773;43.300;0.394;2023-11-21T11:19:41;100102.09;;;14.02;74.64
17311;BME280;8773;43.300;0.394;2023-11-21T11:22:16;100093.38;;;14.09;74.61
17311;BME280;8773;43.300;0.394;2023-11-21T11:25:03;100103.28;;;13.92;74.59
17311;BME280;8773;43.300;0.394;2023-11-21T11:27:44;100101.38;;;13.52;75.06
17311;BME280;8773;43.300;0.394;2023-11-21T11:30:26;100108.44;;;13.53;75.89
17311;BME280;8773;43.300;0.394;2023-11-21T11:33:07;100097.22;;;13.65;75.07
17311;BME280;8773;43.300;0.394;2023-11-21T11:35:43;100093.69;;;14.05;74.78
17311;BME280;8773;43.300;0.394;2023-11-21T11:38:13;100081.69;;;14.49;73.20
17311;BME280;8773;43.300;0.394;2023-11-21T11:40:41;100089.91;;;14.55;72.35
17311;BME280;8773;43.300;0.394;2023-11-21T11:43:08;100091.03;;;14.61;72.03
17311;BME280;8773;43.300;0.394;2023-11-21T11:45:36;100092.69;;;14.70;70.91
17311;BME280;8773;43.300;0.394;2023-11-21T11:48:05;100084.22;;;14.50;72.11
17311;BME280;8773;43.300;0.394;2023-11-21T11:50:33;100091.09;;;14.53;72.25
17311;BME280;8773;43.300;0.394;2023-11-21T11:53:12;100088.09;;;14.39;73.58
17311;BME280;8773;43.300;0.394;2023-11-21T11:55:39;100089.28;;;14.21;74.33
17311;BME280;8773;43.300;0.394;2023-11-21T11:58:07;100089.44;;;14.44;73.62
17311;BME280;8773;43.300;0.394;2023-11-21T12:00:35;100094.81;;;14.35;73.93
17311;BME280;8773;43.300;0.394;2023-11-21T12:03:06;100091.84;;;14.06;74.26
17311;BME280;8773;43.300;0.394;2023-11-21T12:05:34;100100.56;;;13.59;76.60
17311;BME280;8773;43.300;0.394;2023-11-21T12:08:03;100095.91;;;13.69;76.91
17311;BME280;8773;43.300;0.394;2023-11-21T12:10:32;100093.19;;;13.78;76.18
17311;BME280;8773;43.300;0.394;2023-11-21T12:13:01;100102.44;;;13.83;76.14
17311;BME280;8773;43.300;0.394;2023-11-21T12:15:28;100105.44;;;13.80;75.98
17311;BME280;8773;43.300;0.394;2023-11-21T12:17:56;100098.94;;;13.66;76.11
17311;BME280;8773;43.300;0.394;2023-11-21T12:20:26;100100.59;;;13.67;76.63
17311;BME280;8773;43.300;0.394;2023-11-21T12:22:54;100105.25;;;13.57;76.25
17311;BME280;8773;43.300;0.394;2023-11-21T12:25:23;100098.22;;;13.81;75.57
17311;BME280;8773;43.300;0.394;2023-11-21T12:27:52;100107.78;;;13.59;76.33
17311;BME280;8773;43.300;0.394;2023-11-21T12:30:20;100110.19;;;13.12;76.26
17311;BME280;8773;43.300;0.394;2023-11-21T12:32:49;100113.22;;;13.17;75.65
17311;BME280;8773;43.300;0.394;2023-11-21T12:35:17;100109.03;;;12.72;76.65
17311;BME280;8773;43.300;0.394;2023-11-21T12:37:46;100113.31;;;12.99;75.78
17311;BME280;8773;43.300;0.394;2023-11-21T12:40:15;100118.72;;;12.65;76.68
17311;BME280;8773;43.300;0.394;2023-11-21T12:42:44;100117.13;;;12.80;75.54
17311;BME280;8773;43.300;0.394;2023-11-21T12:45:22;100117.44;;;12.77;76.39
17311;BME280;8773;43.300;0.394;2023-11-21T12:47:51;100118.13;;;12.87;75.16
17311;BME280;8773;43.300;0.394;2023-11-21T12:50:19;100113.72;;;12.70;75.65
17311;BME280;8773;43.300;0.394;2023-11-21T12:52:49;100116.72;;;13.09;75.06
17311;BME280;8773;43.300;0.394;2023-11-21T12:55:18;100117.56;;;13.10;74.92
17311;BME280;8773;43.300;0.394;2023-11-21T12:57:47;100119.94;;;13.21;74.51
17311;BME280;8773;43.300;0.394;2023-11-21T13:00:16;100120.63;;;13.39;74.33
17311;BME280;8773;43.300;0.394;2023-11-21T13:02:43;100118.31;;;13.52;74.44
17311;BME280;8773;43.300;0.394;2023-11-21T13:05:10;100112.44;;;13.49;73.94
17311;BME280;8773;43.300;0.394;2023-11-21T13:07:41;100105.94;;;13.76;73.88